Time;durP1;ratioP1;P1;durP2;ratioP2;P2;SDS_P1;SDS_P2;PMS_P1;PMS_P2;Temp;Humidity;BMP_temperature;BMP_pressure;BME280_temperature;BME280_humidity;BME280_pressure;Samples;Min_cycle;Max_cycle;Signal;HPM_P1;HPM_P2
2023/08/07 00:00:38;;;;;;;0.00;0.00;;;;;;;;;;1734523;28;20337;-80
2023/08/07 00:01:30;;;;;;;0.00;0.00;;;;;;;;;;1728456;28;20204;-80
2023/08/07 00:02:22;;;;;;;0.00;0.00;;;;;;;;;;1730574;28;20204;-80
2023/08/07 00:03:18;;;;;;;0.00;0.00;;;;;;;;;;1736919;28;20246;-80
2023/08/07 00:04:10;;;;;;;0.00;0.00;;;;;;;;;;1735173;28;20219;-80
2023/08/07 00:05:02;;;;;;;0.00;0.00;;;;;;;;;;1733196;28;20294;-80
2023/08/07 00:05:55;;;;;;;0.00;0.00;;;;;;;;;;1735738;28;20241;-81
2023/08/07 00:06:47;;;;;;;0.00;0.00;;;;;;;;;;1732524;28;20737;-81
2023/08/07 00:07:38;;;;;;;0.00;0.00;;;;;;;;;;1731278;28;20231;-80
2023/08/07 00:08:30;;;;;;;0.00;0.00;;;;;;;;;;1733086;28;20583;-79
2023/08/07 00:09:22;;;;;;;0.00;0.00;;;;;;;;;;1734727;28;20210;-79
2023/08/07 00:10:14;;;;;;;0.00;0.00;;;;;;;;;;1732921;28;20303;-79
2023/08/07 00:11:06;;;;;;;0.00;0.00;;;;;;;;;;1728532;28;20224;-79
2023/08/07 00:11:57;;;;;;;0.00;0.00;;;;;;;;;;1726350;28;20262;-80
2023/08/07 00:12:49;;;;;;;0.00;0.00;;;;;;;;;;1732554;28;20290;-80
2023/08/07 00:13:41;;;;;;;0.00;0.00;;;;;;;;;;1727350;28;20699;-79
2023/08/07 00:14:33;;;;;;;0.00;0.00;;;;;;;;;;1725616;28;20291;-80
2023/08/07 00:15:24;;;;;;;0.00;0.00;;;;;;;;;;1726613;28;20276;-81
2023/08/07 00:16:16;;;;;;;0.00;0.00;;;;;;;;;;1729102;28;20215;-81
2023/08/07 00:17:08;;;;;;;0.00;0.00;;;;;;;;;;1732919;28;20234;-80
2023/08/07 00:17:59;;;;;;;0.00;0.00;;;;;;;;;;1738738;28;20679;-80
2023/08/07 00:18:52;;;;;;;0.00;0.00;;;;;;;;;;1735552;28;20207;-80
2023/08/07 00:19:43;;;;;;;0.00;0.00;;;;;;;;;;1734102;28;20253;-80
2023/08/07 00:20:34;;;;;;;0.00;0.00;;;;;;;;;;1734815;28;20227;-80
2023/08/07 00:21:28;;;;;;;0.00;0.00;;;;;;;;;;1733968;28;20234;-80
2023/08/07 00:22:19;;;;;;;0.00;0.00;;;;;;;;;;1732911;28;20227;-81
2023/08/07 00:23:11;;;;;;;0.00;0.00;;;;;;;;;;1729129;28;20208;-81
2023/08/07 00:24:02;;;;;;;0.10;0.10;;;;;;;;;;1735630;28;20241;-81
2023/08/07 00:24:53;;;;;;;0.00;0.00;;;;;;;;;;1733356;28;20203;-81
2023/08/07 00:25:45;;;;;;;0.00;0.00;;;;;;;;;;1738041;28;20243;-81
2023/08/07 00:26:36;;;;;;;0.00;0.00;;;;;;;;;;1736037;28;20227;-80
2023/08/07 00:27:28;;;;;;;0.00;0.00;;;;;;;;;;1738171;28;20202;-80
2023/08/07 00:28:19;;;;;;;0.00;0.00;;;;;;;;;;1736121;28;20211;-79
2023/08/07 00:29:11;;;;;;;0.00;0.00;;;;;;;;;;1736166;28;20203;-79
2023/08/07 00:30:06;;;;;;;0.00;0.00;;;;;;;;;;1735247;28;20771;-79
2023/08/07 00:30:58;;;;;;;0.00;0.00;;;;;;;;;;1736707;28;20267;-79
2023/08/07 00:31:49;;;;;;;0.00;0.00;;;;;;;;;;1735942;28;20226;-79
2023/08/07 00:32:41;;;;;;;0.00;0.00;;;;;;;;;;1737797;28;20199;-79
2023/08/07 00:33:32;;;;;;;0.00;0.00;;;;;;;;;;1734670;28;20257;-79
2023/08/07 00:34:24;;;;;;;0.00;0.00;;;;;;;;;;1736837;28;20200;-79
2023/08/07 00:35:15;;;;;;;0.00;0.00;;;;;;;;;;1733892;28;20642;-79
2023/08/07 00:36:06;;;;;;;0.00;0.00;;;;;;;;;;1735911;28;20235;-80
2023/08/07 00:37:00;;;;;;;0.00;0.00;;;;;;;;;;1732586;28;20203;-79
2023/08/07 00:37:51;;;;;;;0.00;0.00;;;;;;;;;;1731249;28;20243;-79
2023/08/07 00:38:42;;;;;;;0.00;0.00;;;;;;;;;;1733301;28;20209;-79
2023/08/07 00:39:34;;;;;;;0.00;0.00;;;;;;;;;;1739030;28;20624;-79
2023/08/07 00:40:25;;;;;;;0.00;0.00;;;;;;;;;;1735627;28;20236;-78
2023/08/07 00:41:17;;;;;;;0.00;0.00;;;;;;;;;;1735343;28;20207;-79
2023/08/07 00:42:09;;;;;;;0.00;0.00;;;;;;;;;;1736194;28;20286;-79
2023/08/07 00:43:00;;;;;;;0.00;0.00;;;;;;;;;;1741175;28;20214;-79
2023/08/07 00:43:53;;;;;;;0.00;0.00;;;;;;;;;;1738409;28;20203;-79
2023/08/07 00:44:44;;;;;;;0.00;0.00;;;;;;;;;;1736003;28;20215;-79
2023/08/07 00:45:37;;;;;;;0.00;0.00;;;;;;;;;;1736628;28;20210;-78
2023/08/07 00:46:29;;;;;;;0.00;0.00;;;;;;;;;;1736857;28;20200;-79
2023/08/07 00:47:20;;;;;;;0.00;0.00;;;;;;;;;;1736123;28;20234;-79
2023/08/07 00:48:12;;;;;;;0.00;0.00;;;;;;;;;;1732681;28;20212;-79
2023/08/07 00:49:05;;;;;;;0.00;0.00;;;;;;;;;;1739031;28;20198;-79
2023/08/07 00:49:56;;;;;;;0.00;0.00;;;;;;;;;;1736992;28;20272;-79
2023/08/07 00:50:49;;;;;;;0.00;0.00;;;;;;;;;;1735577;28;20293;-80
2023/08/07 00:51:40;;;;;;;0.00;0.00;;;;;;;;;;1727120;28;20267;-80
2023/08/07 00:52:34;;;;;;;0.00;0.00;;;;;;;;;;1722901;28;20267;-79
2023/08/07 00:53:25;;;;;;;0.00;0.00;;;;;;;;;;1725630;28;20215;-79
2023/08/07 00:54:20;;;;;;;0.00;0.00;;;;;;;;;;1723331;28;20576;-79
2023/08/07 00:55:11;;;;;;;0.00;0.00;;;;;;;;;;1726953;28;20204;-80
2023/08/07 00:56:03;;;;;;;0.00;0.00;;;;;;;;;;1727961;28;20322;-79
2023/08/07 00:56:54;;;;;;;0.00;0.00;;;;;;;;;;1730073;28;20295;-79
2023/08/07 00:57:46;;;;;;;0.00;0.00;;;;;;;;;;1734224;28;20203;-79
2023/08/07 00:58:38;;;;;;;0.00;0.00;;;;;;;;;;1730001;28;20239;-79
2023/08/07 00:59:29;;;;;;;0.00;0.00;;;;;;;;;;1730267;28;20437;-79
2023/08/07 01:00:21;;;;;;;0.00;0.00;;;;;;;;;;1724511;28;20214;-79
2023/08/07 01:01:12;;;;;;;0.00;0.00;;;;;;;;;;1725384;28;20701;-79
2023/08/07 01:02:04;;;;;;;0.00;0.00;;;;;;;;;;1721658;28;20536;-79
2023/08/07 01:02:57;;;;;;;0.00;0.00;;;;;;;;;;1730197;28;20290;-79
2023/08/07 01:03:48;;;;;;;0.00;0.00;;;;;;;;;;1724276;28;20563;-80
2023/08/07 01:04:40;;;;;;;0.00;0.00;;;;;;;;;;1725470;28;20311;-80
2023/08/07 01:05:32;;;;;;;0.00;0.00;;;;;;;;;;1725004;28;20417;-79
2023/08/07 01:06:23;;;;;;;0.00;0.00;;;;;;;;;;1728939;28;20306;-79
2023/08/07 01:07:15;;;;;;;0.00;0.00;;;;;;;;;;1728396;28;20208;-79
2023/08/07 01:08:07;;;;;;;0.00;0.00;;;;;;;;;;1733940;28;20231;-79
2023/08/07 01:08:59;;;;;;;0.00;0.00;;;;;;;;;;1728461;28;20223;-79
2023/08/07 01:09:50;;;;;;;0.00;0.00;;;;;;;;;;1728209;28;20255;-79
2023/08/07 01:10:47;;;;;;;0.00;0.00;;;;;;;;;;1724598;28;20694;-79
2023/08/07 01:11:45;;;;;;;0.00;0.00;;;;;;;;;;1726430;28;20206;-79
2023/08/07 01:12:41;;;;;;;0.00;0.00;;;;;;;;;;1722587;28;20721;-79
2023/08/07 01:13:35;;;;;;;0.00;0.00;;;;;;;;;;1725302;28;20204;-79
2023/08/07 01:14:30;;;;;;;0.00;0.00;;;;;;;;;;1725476;28;20196;-79
2023/08/07 01:15:23;;;;;;;0.00;0.00;;;;;;;;;;1724195;28;20204;-79
2023/08/07 01:16:19;;;;;;;0.00;0.00;;;;;;;;;;1723656;28;20216;-79
2023/08/07 01:17:11;;;;;;;0.00;0.00;;;;;;;;;;1724672;28;20626;-79
2023/08/07 01:18:05;;;;;;;0.00;0.00;;;;;;;;;;1725679;28;20200;-79
2023/08/07 01:18:57;;;;;;;0.00;0.00;;;;;;;;;;1722615;28;20609;-78
2023/08/07 01:19:51;;;;;;;0.00;0.00;;;;;;;;;;1725890;28;20599;-79
2023/08/07 01:20:42;;;;;;;0.00;0.00;;;;;;;;;;1722452;28;20236;-79
2023/08/07 01:21:34;;;;;;;0.00;0.00;;;;;;;;;;1729081;28;20227;-79
2023/08/07 01:22:26;;;;;;;0.00;0.00;;;;;;;;;;1725834;28;20200;-79
2023/08/07 01:23:18;;;;;;;0.00;0.00;;;;;;;;;;1727636;28;20219;-78
2023/08/07 01:24:09;;;;;;;0.00;0.00;;;;;;;;;;1725830;28;20646;-79
2023/08/07 01:25:04;;;;;;;0.00;0.00;;;;;;;;;;1733157;28;20200;-78
2023/08/07 01:25:55;;;;;;;0.00;0.00;;;;;;;;;;1725342;28;20268;-79
2023/08/07 01:26:47;;;;;;;0.00;0.00;;;;;;;;;;1727225;28;20698;-78
2023/08/07 01:27:43;;;;;;;0.00;0.00;;;;;;;;;;1727278;28;20614;-79
2023/08/07 01:28:37;;;;;;;0.00;0.00;;;;;;;;;;1726719;28;20286;-79
2023/08/07 01:29:34;;;;;;;0.00;0.00;;;;;;;;;;1727309;28;20634;-78
2023/08/07 01:30:29;;;;;;;0.00;0.00;;;;;;;;;;1723143;28;20217;-79
2023/08/07 01:31:24;;;;;;;0.00;0.00;;;;;;;;;;1725890;28;20914;-79
2023/08/07 01:32:16;;;;;;;0.00;0.00;;;;;;;;;;1726331;28;20228;-79
2023/08/07 01:33:12;;;;;;;0.00;0.00;;;;;;;;;;1727716;28;20204;-79
2023/08/07 01:34:06;;;;;;;0.00;0.00;;;;;;;;;;1724256;28;20240;-79
2023/08/07 01:34:57;;;;;;;0.00;0.00;;;;;;;;;;1727817;28;20242;-79
2023/08/07 01:35:53;;;;;;;0.00;0.00;;;;;;;;;;1722693;28;20237;-79
2023/08/07 01:36:46;;;;;;;0.00;0.00;;;;;;;;;;1726961;28;20211;-79
2023/08/07 01:37:40;;;;;;;0.00;0.00;;;;;;;;;;1729175;28;20192;-79
2023/08/07 01:38:33;;;;;;;0.00;0.00;;;;;;;;;;1728516;28;20220;-79
2023/08/07 01:39:25;;;;;;;0.00;0.00;;;;;;;;;;1727194;28;20240;-79
2023/08/07 01:40:17;;;;;;;0.00;0.00;;;;;;;;;;1725371;28;20283;-79
2023/08/07 01:41:09;;;;;;;0.00;0.00;;;;;;;;;;1722986;28;20228;-79
2023/08/07 01:42:02;;;;;;;0.00;0.00;;;;;;;;;;1724699;28;20722;-79
2023/08/07 01:42:53;;;;;;;0.00;0.00;;;;;;;;;;1725722;28;20214;-79
2023/08/07 01:43:45;;;;;;;0.00;0.00;;;;;;;;;;1723287;28;20639;-79
2023/08/07 01:44:37;;;;;;;0.00;0.00;;;;;;;;;;1725336;28;20294;-79
2023/08/07 01:45:29;;;;;;;0.00;0.00;;;;;;;;;;1724888;28;20238;-79
2023/08/07 01:46:21;;;;;;;0.00;0.00;;;;;;;;;;1727161;28;20693;-79
2023/08/07 01:47:12;;;;;;;0.00;0.00;;;;;;;;;;1724672;28;20243;-79
2023/08/07 01:48:04;;;;;;;0.00;0.00;;;;;;;;;;1726656;28;20200;-79
2023/08/07 01:48:55;;;;;;;0.00;0.00;;;;;;;;;;1724318;28;20250;-79
2023/08/07 01:49:46;;;;;;;0.00;0.00;;;;;;;;;;1727130;28;20238;-79
2023/08/07 01:50:39;;;;;;;0.00;0.00;;;;;;;;;;1725969;28;20244;-79
2023/08/07 01:51:30;;;;;;;0.00;0.00;;;;;;;;;;1729762;28;20733;-79
2023/08/07 01:52:21;;;;;;;0.00;0.00;;;;;;;;;;1725979;28;20231;-79
2023/08/07 01:53:15;;;;;;;0.00;0.00;;;;;;;;;;1722768;28;20705;-79
2023/08/07 01:54:06;;;;;;;0.00;0.00;;;;;;;;;;1726297;28;20211;-79
2023/08/07 01:54:57;;;;;;;0.00;0.00;;;;;;;;;;1727472;28;20204;-79
2023/08/07 01:55:49;;;;;;;0.00;0.00;;;;;;;;;;1720095;28;20249;-79
2023/08/07 01:56:40;;;;;;;0.00;0.00;;;;;;;;;;1734461;28;20278;-79
2023/08/07 01:57:31;;;;;;;0.00;0.00;;;;;;;;;;1730615;28;20283;-79
2023/08/07 01:58:23;;;;;;;0.00;0.00;;;;;;;;;;1727460;28;20217;-79
2023/08/07 01:59:14;;;;;;;0.00;0.00;;;;;;;;;;1727314;28;20204;-79
2023/08/07 02:00:06;;;;;;;0.00;0.00;;;;;;;;;;1727871;28;20516;-80
2023/08/07 02:00:58;;;;;;;0.00;0.00;;;;;;;;;;1723880;28;20294;-79
2023/08/07 02:01:49;;;;;;;0.00;0.00;;;;;;;;;;1719952;28;20220;-79
2023/08/07 02:02:40;;;;;;;0.00;0.00;;;;;;;;;;1725484;28;20258;-79
2023/08/07 02:03:32;;;;;;;0.00;0.00;;;;;;;;;;1724507;28;20354;-79
2023/08/07 02:04:23;;;;;;;0.00;0.00;;;;;;;;;;1725714;28;20215;-80
2023/08/07 02:05:15;;;;;;;0.00;0.00;;;;;;;;;;1725198;28;20204;-79
2023/08/07 02:06:07;;;;;;;0.00;0.00;;;;;;;;;;1726471;28;20346;-79
2023/08/07 02:06:58;;;;;;;0.00;0.00;;;;;;;;;;1727233;28;20216;-79
2023/08/07 02:07:52;;;;;;;0.00;0.00;;;;;;;;;;1725777;28;20376;-79
2023/08/07 02:08:45;;;;;;;0.00;0.00;;;;;;;;;;1726118;28;20205;-79
2023/08/07 02:09:36;;;;;;;0.00;0.00;;;;;;;;;;1729233;28;20542;-80
2023/08/07 02:10:28;;;;;;;0.00;0.00;;;;;;;;;;1726279;28;20243;-80
2023/08/07 02:11:20;;;;;;;0.00;0.00;;;;;;;;;;1726481;28;21228;-80
2023/08/07 02:12:11;;;;;;;0.00;0.00;;;;;;;;;;1723504;28;20237;-80
2023/08/07 02:13:03;;;;;;;0.00;0.00;;;;;;;;;;1726451;28;20299;-80
2023/08/07 02:13:54;;;;;;;0.00;0.00;;;;;;;;;;1724198;28;20235;-80
2023/08/07 02:14:45;;;;;;;0.00;0.00;;;;;;;;;;1725715;28;20613;-80
2023/08/07 02:15:37;;;;;;;0.00;0.00;;;;;;;;;;1722568;28;20224;-80
2023/08/07 02:16:28;;;;;;;0.00;0.00;;;;;;;;;;1726382;28;20266;-80
2023/08/07 02:17:20;;;;;;;0.00;0.00;;;;;;;;;;1725786;28;20520;-80
2023/08/07 02:18:12;;;;;;;0.00;0.00;;;;;;;;;;1726820;28;20239;-80
2023/08/07 02:19:04;;;;;;;0.00;0.00;;;;;;;;;;1724265;28;20236;-80
2023/08/07 02:19:55;;;;;;;0.00;0.00;;;;;;;;;;1726769;28;20204;-80
2023/08/07 02:20:47;;;;;;;0.00;0.00;;;;;;;;;;1720874;28;20251;-80
2023/08/07 02:21:38;;;;;;;0.00;0.00;;;;;;;;;;1726381;28;20247;-80
2023/08/07 02:22:29;;;;;;;0.00;0.00;;;;;;;;;;1725174;28;20588;-80
2023/08/07 02:23:21;;;;;;;0.00;0.00;;;;;;;;;;1726437;28;20204;-80
2023/08/07 02:24:13;;;;;;;0.00;0.00;;;;;;;;;;1724153;28;20235;-81
2023/08/07 02:25:04;;;;;;;0.00;0.00;;;;;;;;;;1726431;28;20204;-81
2023/08/07 02:25:56;;;;;;;0.00;0.00;;;;;;;;;;1724492;28;20254;-80
2023/08/07 02:26:48;;;;;;;0.00;0.00;;;;;;;;;;1725138;28;20669;-80
2023/08/07 02:27:39;;;;;;;0.00;0.00;;;;;;;;;;1725628;28;20232;-80
2023/08/07 02:28:31;;;;;;;0.00;0.00;;;;;;;;;;1725328;28;20270;-80
2023/08/07 02:29:22;;;;;;;0.00;0.00;;;;;;;;;;1725317;28;20235;-80
2023/08/07 02:30:14;;;;;;;0.00;0.00;;;;;;;;;;1726095;28;20566;-80
2023/08/07 02:31:05;;;;;;;0.00;0.00;;;;;;;;;;1728352;28;20256;-80
2023/08/07 02:31:57;;;;;;;0.00;0.00;;;;;;;;;;1729325;28;20507;-80
2023/08/07 02:32:48;;;;;;;0.00;0.00;;;;;;;;;;1729855;28;20240;-80
2023/08/07 02:33:41;;;;;;;0.00;0.00;;;;;;;;;;1728170;28;20592;-80
2023/08/07 02:34:32;;;;;;;0.00;0.00;;;;;;;;;;1730262;28;20208;-80
2023/08/07 02:35:23;;;;;;;0.00;0.00;;;;;;;;;;1727345;28;20627;-81
2023/08/07 02:36:15;;;;;;;0.00;0.00;;;;;;;;;;1727240;28;20200;-80
2023/08/07 02:37:06;;;;;;;0.00;0.00;;;;;;;;;;1724785;28;20259;-80
2023/08/07 02:37:58;;;;;;;0.00;0.00;;;;;;;;;;1727392;28;20215;-81
2023/08/07 02:38:49;;;;;;;0.00;0.00;;;;;;;;;;1724323;28;20527;-82
2023/08/07 02:39:42;;;;;;;0.00;0.00;;;;;;;;;;1725810;28;20258;-82
2023/08/07 02:40:34;;;;;;;0.00;0.00;;;;;;;;;;1724234;28;20277;-82
2023/08/07 02:41:25;;;;;;;0.00;0.00;;;;;;;;;;1727757;28;20444;-82
2023/08/07 02:42:16;;;;;;;0.00;0.00;;;;;;;;;;1725627;28;20303;-81
2023/08/07 02:43:08;;;;;;;0.00;0.00;;;;;;;;;;1727332;28;20200;-82
2023/08/07 02:43:59;;;;;;;0.00;0.00;;;;;;;;;;1725165;28;20248;-81
2023/08/07 02:44:50;;;;;;;0.00;0.00;;;;;;;;;;1727038;28;20232;-81
2023/08/07 02:45:42;;;;;;;0.00;0.00;;;;;;;;;;1726421;28;20236;-81
2023/08/07 02:46:35;;;;;;;0.00;0.00;;;;;;;;;;1732511;28;20264;-81
2023/08/07 02:47:26;;;;;;;0.00;0.00;;;;;;;;;;1729483;28;20232;-81
2023/08/07 02:48:19;;;;;;;0.00;0.00;;;;;;;;;;1731674;28;20212;-81
2023/08/07 02:49:10;;;;;;;0.00;0.00;;;;;;;;;;1728418;28;20208;-81
2023/08/07 02:50:05;;;;;;;0.00;0.00;;;;;;;;;;1731200;28;20211;-81
2023/08/07 02:50:56;;;;;;;0.00;0.00;;;;;;;;;;1728208;28;20290;-81
2023/08/07 02:51:47;;;;;;;0.00;0.00;;;;;;;;;;1730149;28;20266;-82
2023/08/07 02:52:39;;;;;;;0.00;0.00;;;;;;;;;;1728913;28;20530;-82
2023/08/07 02:53:30;;;;;;;0.00;0.00;;;;;;;;;;1728909;28;20696;-82
2023/08/07 02:54:21;;;;;;;0.00;0.00;;;;;;;;;;1726827;28;20208;-82
2023/08/07 02:55:14;;;;;;;0.00;0.00;;;;;;;;;;1729399;28;20209;-81
2023/08/07 02:56:05;;;;;;;0.00;0.00;;;;;;;;;;1726145;28;20693;-80
2023/08/07 02:56:56;;;;;;;0.00;0.00;;;;;;;;;;1726599;28;20670;-80
2023/08/07 02:57:48;;;;;;;0.00;0.00;;;;;;;;;;1727538;28;20260;-80
2023/08/07 02:58:39;;;;;;;0.00;0.00;;;;;;;;;;1726681;28;20232;-80
2023/08/07 02:59:30;;;;;;;0.00;0.00;;;;;;;;;;1727816;28;20648;-80
2023/08/07 03:00:22;;;;;;;0.00;0.00;;;;;;;;;;1726880;28;20267;-79
2023/08/07 03:01:14;;;;;;;0.00;0.00;;;;;;;;;;1729087;28;20242;-79
2023/08/07 03:02:05;;;;;;;0.00;0.00;;;;;;;;;;1727855;28;20200;-79
2023/08/07 03:02:57;;;;;;;0.00;0.00;;;;;;;;;;1729985;28;20208;-79
2023/08/07 03:03:48;;;;;;;0.00;0.00;;;;;;;;;;1729101;28;20626;-80
2023/08/07 03:04:40;;;;;;;0.00;0.00;;;;;;;;;;1732910;28;20236;-79
2023/08/07 03:05:31;;;;;;;0.00;0.00;;;;;;;;;;1731179;28;20637;-81
2023/08/07 03:06:23;;;;;;;0.00;0.00;;;;;;;;;;1732805;28;20200;-79
2023/08/07 03:07:14;;;;;;;0.00;0.00;;;;;;;;;;1731679;28;20318;-79
2023/08/07 03:08:06;;;;;;;0.00;0.00;;;;;;;;;;1732772;28;20619;-79
2023/08/07 03:08:57;;;;;;;0.10;0.10;;;;;;;;;;1729872;28;20257;-80
2023/08/07 03:09:49;;;;;;;0.00;0.00;;;;;;;;;;1732602;28;20244;-79
2023/08/07 03:10:42;;;;;;;0.00;0.00;;;;;;;;;;1723420;28;20288;-79
2023/08/07 03:11:33;;;;;;;0.00;0.00;;;;;;;;;;1724379;28;20303;-79
2023/08/07 03:12:25;;;;;;;0.00;0.00;;;;;;;;;;1726158;28;20537;-80
2023/08/07 03:13:16;;;;;;;0.00;0.00;;;;;;;;;;1727363;28;20624;-80
2023/08/07 03:14:07;;;;;;;0.00;0.00;;;;;;;;;;1723230;28;20303;-79
2023/08/07 03:14:59;;;;;;;0.00;0.00;;;;;;;;;;1727022;28;20386;-79
2023/08/07 03:15:50;;;;;;;0.00;0.00;;;;;;;;;;1725280;28;20274;-79
2023/08/07 03:16:41;;;;;;;0.00;0.00;;;;;;;;;;1728124;28;20204;-79
2023/08/07 03:17:33;;;;;;;0.00;0.00;;;;;;;;;;1725531;28;20240;-80
2023/08/07 03:18:25;;;;;;;0.00;0.00;;;;;;;;;;1727290;28;20209;-80
2023/08/07 03:19:16;;;;;;;0.00;0.00;;;;;;;;;;1725470;28;20216;-80
2023/08/07 03:20:09;;;;;;;0.00;0.00;;;;;;;;;;1727340;28;20208;-79
2023/08/07 03:21:00;;;;;;;0.00;0.00;;;;;;;;;;1725825;28;20270;-80
2023/08/07 03:21:52;;;;;;;0.00;0.00;;;;;;;;;;1726661;28;20332;-80
2023/08/07 03:22:43;;;;;;;0.00;0.00;;;;;;;;;;1725844;28;20381;-79
2023/08/07 03:23:34;;;;;;;0.00;0.00;;;;;;;;;;1726432;28;20239;-80
2023/08/07 03:24:26;;;;;;;0.00;0.00;;;;;;;;;;1724163;28;20748;-80
2023/08/07 03:25:18;;;;;;;0.00;0.00;;;;;;;;;;1725970;28;20228;-79
2023/08/07 03:26:11;;;;;;;0.00;0.00;;;;;;;;;;1731517;28;20280;-80
2023/08/07 03:27:03;;;;;;;0.00;0.00;;;;;;;;;;1731004;28;20224;-80
2023/08/07 03:27:54;;;;;;;0.00;0.00;;;;;;;;;;1731656;28;20212;-80
2023/08/07 03:28:46;;;;;;;0.00;0.00;;;;;;;;;;1729337;28;20244;-79
2023/08/07 03:29:38;;;;;;;0.00;0.00;;;;;;;;;;1731519;28;20207;-79
2023/08/07 03:30:29;;;;;;;0.00;0.00;;;;;;;;;;1726697;28;20286;-81
2023/08/07 03:31:20;;;;;;;0.00;0.00;;;;;;;;;;1727518;28;20235;-81
2023/08/07 03:32:12;;;;;;;0.00;0.00;;;;;;;;;;1724881;28;20251;-80
2023/08/07 03:33:04;;;;;;;0.00;0.00;;;;;;;;;;1728388;28;20582;-80
2023/08/07 03:33:56;;;;;;;0.00;0.00;;;;;;;;;;1725018;28;20218;-80
2023/08/07 03:34:47;;;;;;;0.00;0.00;;;;;;;;;;1727759;28;20272;-81
2023/08/07 03:35:38;;;;;;;0.00;0.00;;;;;;;;;;1726193;28;20255;-81
2023/08/07 03:36:30;;;;;;;0.00;0.00;;;;;;;;;;1727674;28;20200;-81
2023/08/07 03:37:21;;;;;;;0.00;0.00;;;;;;;;;;1726222;28;20266;-81
2023/08/07 03:38:12;;;;;;;0.00;0.00;;;;;;;;;;1728331;28;20240;-80
2023/08/07 03:39:04;;;;;;;0.00;0.00;;;;;;;;;;1724529;28;20338;-81
2023/08/07 03:39:55;;;;;;;0.00;0.00;;;;;;;;;;1721477;28;20291;-81
2023/08/07 03:40:47;;;;;;;0.00;0.00;;;;;;;;;;1723449;28;20647;-81
2023/08/07 03:41:40;;;;;;;0.00;0.00;;;;;;;;;;1727800;28;20693;-81
2023/08/07 03:42:31;;;;;;;0.00;0.00;;;;;;;;;;1724996;28;20196;-80
2023/08/07 03:43:22;;;;;;;0.00;0.00;;;;;;;;;;1726561;28;20212;-81
2023/08/07 03:44:14;;;;;;;0.00;0.00;;;;;;;;;;1726562;28;20228;-81
2023/08/07 03:45:06;;;;;;;0.00;0.00;;;;;;;;;;1727094;28;20212;-81
2023/08/07 03:45:57;;;;;;;0.00;0.00;;;;;;;;;;1723046;28;20263;-81
2023/08/07 03:46:50;;;;;;;0.00;0.00;;;;;;;;;;1726953;28;20637;-81
2023/08/07 03:47:41;;;;;;;0.00;0.00;;;;;;;;;;1726359;28;20570;-81
2023/08/07 03:48:33;;;;;;;0.00;0.00;;;;;;;;;;1726353;28;20296;-81
2023/08/07 03:49:25;;;;;;;0.00;0.00;;;;;;;;;;1726439;28;20299;-80
2023/08/07 03:50:16;;;;;;;0.00;0.00;;;;;;;;;;1725875;28;20592;-80
2023/08/07 03:51:08;;;;;;;0.00;0.00;;;;;;;;;;1730004;28;20335;-80
2023/08/07 03:52:00;;;;;;;0.00;0.00;;;;;;;;;;1729731;28;20193;-80
2023/08/07 03:52:52;;;;;;;0.00;0.00;;;;;;;;;;1729667;28;20201;-80
2023/08/07 03:53:43;;;;;;;0.00;0.00;;;;;;;;;;1729059;28;20272;-80
2023/08/07 03:54:35;;;;;;;0.00;0.00;;;;;;;;;;1728117;28;20219;-81
2023/08/07 03:55:26;;;;;;;0.00;0.00;;;;;;;;;;1728198;28;20870;-79
2023/08/07 03:56:17;;;;;;;0.00;0.00;;;;;;;;;;1729700;28;20204;-79
2023/08/07 03:57:11;;;;;;;0.00;0.00;;;;;;;;;;1728025;28;20598;-79
2023/08/07 03:58:02;;;;;;;0.00;0.00;;;;;;;;;;1729664;28;20653;-79
2023/08/07 03:58:54;;;;;;;0.10;0.10;;;;;;;;;;1728817;28;20236;-79
2023/08/07 03:59:45;;;;;;;0.00;0.00;;;;;;;;;;1729461;28;20231;-79
2023/08/07 04:00:38;;;;;;;0.00;0.00;;;;;;;;;;1728353;28;20247;-79
2023/08/07 04:01:29;;;;;;;0.00;0.00;;;;;;;;;;1728788;28;20457;-80
2023/08/07 04:02:21;;;;;;;0.00;0.00;;;;;;;;;;1727980;28;20240;-81
2023/08/07 04:03:12;;;;;;;0.00;0.00;;;;;;;;;;1730936;28;20690;-80
2023/08/07 04:04:04;;;;;;;0.00;0.00;;;;;;;;;;1729299;28;20208;-80
2023/08/07 04:04:55;;;;;;;0.00;0.00;;;;;;;;;;1730843;28;20242;-81
2023/08/07 04:05:47;;;;;;;0.00;0.00;;;;;;;;;;1723632;28;20310;-81
2023/08/07 04:06:38;;;;;;;0.00;0.00;;;;;;;;;;1727481;28;20243;-81
2023/08/07 04:07:29;;;;;;;0.00;0.00;;;;;;;;;;1724805;28;20232;-81
2023/08/07 04:08:21;;;;;;;0.00;0.00;;;;;;;;;;1727371;28;20318;-81
2023/08/07 04:09:12;;;;;;;0.00;0.00;;;;;;;;;;1726712;28;20649;-81
2023/08/07 04:10:05;;;;;;;0.00;0.00;;;;;;;;;;1727562;28;20208;-81
2023/08/07 04:11:00;;;;;;;0.00;0.00;;;;;;;;;;1726579;28;20610;-80
2023/08/07 04:11:51;;;;;;;0.00;0.00;;;;;;;;;;1728757;28;20208;-81
2023/08/07 04:12:44;;;;;;;0.00;0.00;;;;;;;;;;1729703;28;20215;-80
2023/08/07 04:13:35;;;;;;;0.00;0.00;;;;;;;;;;1727666;28;20534;-80
2023/08/07 04:14:27;;;;;;;0.00;0.00;;;;;;;;;;1725471;28;20307;-80
2023/08/07 04:15:18;;;;;;;0.00;0.00;;;;;;;;;;1726596;28;20263;-81
2023/08/07 04:16:10;;;;;;;0.00;0.00;;;;;;;;;;1726412;28;20681;-80
2023/08/07 04:17:02;;;;;;;0.00;0.00;;;;;;;;;;1725314;28;20247;-80
2023/08/07 04:17:53;;;;;;;0.00;0.00;;;;;;;;;;1727042;28;20209;-81
2023/08/07 04:18:45;;;;;;;0.00;0.00;;;;;;;;;;1724763;28;20223;-80
2023/08/07 04:19:36;;;;;;;0.00;0.00;;;;;;;;;;1727076;28;20239;-81
2023/08/07 04:20:28;;;;;;;0.00;0.00;;;;;;;;;;1723831;28;20850;-81
2023/08/07 04:21:19;;;;;;;0.00;0.00;;;;;;;;;;1724933;28;20673;-81
2023/08/07 04:22:10;;;;;;;0.00;0.00;;;;;;;;;;1724782;28;20296;-81
2023/08/07 04:23:02;;;;;;;0.00;0.00;;;;;;;;;;1726543;28;20291;-81
2023/08/07 04:23:53;;;;;;;0.00;0.00;;;;;;;;;;1725416;28;20292;-80
2023/08/07 04:24:46;;;;;;;0.00;0.00;;;;;;;;;;1726152;28;20208;-81
2023/08/07 04:25:37;;;;;;;0.00;0.00;;;;;;;;;;1724555;28;20232;-80
2023/08/07 04:26:29;;;;;;;0.00;0.00;;;;;;;;;;1726097;28;20234;-81
2023/08/07 04:27:20;;;;;;;0.00;0.00;;;;;;;;;;1725197;28;20354;-81
2023/08/07 04:28:13;;;;;;;0.00;0.00;;;;;;;;;;1726299;28;20196;-81
2023/08/07 04:29:04;;;;;;;0.00;0.00;;;;;;;;;;1725881;28;20387;-81
2023/08/07 04:29:56;;;;;;;0.00;0.00;;;;;;;;;;1726428;28;20553;-81
2023/08/07 04:30:50;;;;;;;0.00;0.00;;;;;;;;;;1724039;28;20339;-81
2023/08/07 04:31:42;;;;;;;0.00;0.00;;;;;;;;;;1726382;28;20208;-81
2023/08/07 04:32:33;;;;;;;0.00;0.00;;;;;;;;;;1724749;28;20559;-80
2023/08/07 04:33:25;;;;;;;0.00;0.00;;;;;;;;;;1725701;28;20203;-80
2023/08/07 04:34:16;;;;;;;0.00;0.00;;;;;;;;;;1725508;28;20236;-79
2023/08/07 04:35:09;;;;;;;0.00;0.00;;;;;;;;;;1726026;28;20213;-80
2023/08/07 04:36:00;;;;;;;0.00;0.00;;;;;;;;;;1725672;28;20236;-79
2023/08/07 04:36:53;;;;;;;0.00;0.00;;;;;;;;;;1727174;28;20562;-79
2023/08/07 04:37:44;;;;;;;0.00;0.00;;;;;;;;;;1726534;28;20586;-79
2023/08/07 04:38:36;;;;;;;0.00;0.00;;;;;;;;;;1726161;28;20204;-79
2023/08/07 04:39:27;;;;;;;0.00;0.00;;;;;;;;;;1727115;28;20323;-79
2023/08/07 04:40:18;;;;;;;0.00;0.00;;;;;;;;;;1727179;28;20200;-80
2023/08/07 04:41:11;;;;;;;0.00;0.00;;;;;;;;;;1715401;28;20232;-80
2023/08/07 04:42:02;;;;;;;0.00;0.00;;;;;;;;;;1716121;28;20216;-80
2023/08/07 04:42:54;;;;;;;0.00;0.00;;;;;;;;;;1724193;28;20240;-81
2023/08/07 04:43:48;;;;;;;0.00;0.00;;;;;;;;;;1723445;28;20241;-80
2023/08/07 04:44:40;;;;;;;0.00;0.00;;;;;;;;;;1724878;28;20248;-81
2023/08/07 04:45:31;;;;;;;0.00;0.00;;;;;;;;;;1724109;28;20247;-80
2023/08/07 04:46:23;;;;;;;0.00;0.00;;;;;;;;;;1723548;28;20268;-80
2023/08/07 04:47:14;;;;;;;0.00;0.00;;;;;;;;;;1724600;28;20311;-80
2023/08/07 04:48:05;;;;;;;0.00;0.00;;;;;;;;;;1727348;28;20208;-80
2023/08/07 04:48:57;;;;;;;0.00;0.00;;;;;;;;;;1723741;28;20219;-80
2023/08/07 04:49:48;;;;;;;0.00;0.00;;;;;;;;;;1726961;28;20527;-80
2023/08/07 04:50:40;;;;;;;0.00;0.00;;;;;;;;;;1723047;28;20247;-81
2023/08/07 04:51:31;;;;;;;0.00;0.00;;;;;;;;;;1722359;28;20271;-81
2023/08/07 04:52:23;;;;;;;0.00;0.00;;;;;;;;;;1723509;28;20243;-81
2023/08/07 04:53:14;;;;;;;0.00;0.00;;;;;;;;;;1720321;28;20244;-81
2023/08/07 04:54:06;;;;;;;0.00;0.00;;;;;;;;;;1721835;28;20229;-81
2023/08/07 04:54:58;;;;;;;0.00;0.00;;;;;;;;;;1726252;28;20211;-80
2023/08/07 04:55:49;;;;;;;0.00;0.00;;;;;;;;;;1723866;28;20240;-80
2023/08/07 04:56:44;;;;;;;0.00;0.00;;;;;;;;;;1726962;28;20204;-80
2023/08/07 04:57:35;;;;;;;0.00;0.00;;;;;;;;;;1725049;28;20204;-80
2023/08/07 04:58:26;;;;;;;0.00;0.00;;;;;;;;;;1726108;28;20200;-80
2023/08/07 04:59:19;;;;;;;0.00;0.00;;;;;;;;;;1723782;28;20215;-80
2023/08/07 05:00:11;;;;;;;0.00;0.00;;;;;;;;;;1727087;28;20262;-80
2023/08/07 05:01:03;;;;;;;0.00;0.00;;;;;;;;;;1725759;28;20266;-80
2023/08/07 05:01:54;;;;;;;0.00;0.00;;;;;;;;;;1726396;28;20254;-80
2023/08/07 05:02:45;;;;;;;0.00;0.00;;;;;;;;;;1729766;28;20208;-80
2023/08/07 05:03:37;;;;;;;0.00;0.00;;;;;;;;;;1727867;28;20201;-80
2023/08/07 05:04:28;;;;;;;0.00;0.00;;;;;;;;;;1726028;28;20228;-80
2023/08/07 05:05:21;;;;;;;0.00;0.00;;;;;;;;;;1725388;28;20204;-80
2023/08/07 05:06:12;;;;;;;0.00;0.00;;;;;;;;;;1723783;28;20347;-79
2023/08/07 05:07:03;;;;;;;0.00;0.00;;;;;;;;;;1725026;28;20213;-79
2023/08/07 05:07:54;;;;;;;0.00;0.00;;;;;;;;;;1725108;28;20217;-80
2023/08/07 05:08:47;;;;;;;0.00;0.00;;;;;;;;;;1723742;28;20209;-80
2023/08/07 05:09:38;;;;;;;0.00;0.00;;;;;;;;;;1726059;28;20216;-79
2023/08/07 05:10:29;;;;;;;0.00;0.00;;;;;;;;;;1724834;28;20283;-80
2023/08/07 05:11:21;;;;;;;0.00;0.00;;;;;;;;;;1729625;28;20322;-80